Time;durP1;ratioP1;P1;durP2;ratioP2;P2;SDS_P1;SDS_P2;PMS_P1;PMS_P2;Temp;Humidity;BMP_temperature;BMP_pressure;BME280_temperature;BME280_humidity;BME280_pressure;Samples;Min_cycle;Max_cycle;Signal;HPM_P1;HPM_P2
2023/12/03 00:00:07;;;;;;;43.40;16.92;;;;;;;-1.01;100.00;101972.13;5114778;28;20054;-88
2023/12/03 00:02:33;;;;;;;49.05;17.33;;;;;;;-1.08;100.00;101968.78;5115226;28;20030;-89
2023/12/03 00:04:59;;;;;;;39.13;15.95;;;;;;;-1.17;100.00;101953.34;5114784;28;20031;-90
2023/12/03 00:07:25;;;;;;;43.40;15.77;;;;;;;-1.27;100.00;101958.78;5114752;28;20027;-90
2023/12/03 00:09:50;;;;;;;37.15;13.30;;;;;;;-1.33;100.00;101966.75;5115147;28;20028;-90
2023/12/03 00:12:16;;;;;;;29.75;12.18;;;;;;;-1.36;100.00;101963.34;5114708;28;20415;-91
2023/12/03 00:14:41;;;;;;;32.67;12.27;;;;;;;-1.36;100.00;101968.56;5115350;28;20036;-90
2023/12/03 00:17:07;;;;;;;24.48;10.80;;;;;;;-1.35;100.00;101967.69;5115145;28;20027;-91
2023/12/03 00:19:32;;;;;;;27.73;10.77;;;;;;;-1.33;100.00;101958.06;5115006;28;20027;-90
2023/12/03 00:21:58;;;;;;;29.17;10.70;;;;;;;-1.28;100.00;101961.44;5096860;28;20063;-90
2023/12/03 00:24:23;;;;;;;23.48;9.50;;;;;;;-1.22;100.00;101957.78;5114557;28;20035;-91
2023/12/03 00:26:48;;;;;;;19.95;8.52;;;;;;;-1.20;100.00;101964.72;5096416;28;20024;-90
2023/12/03 00:29:14;;;;;;;24.35;9.05;;;;;;;-1.19;100.00;101973.41;5114079;28;20176;-91
2023/12/03 00:31:39;;;;;;;18.05;8.23;;;;;;;-1.25;100.00;101970.03;5114435;28;20028;-91
2023/12/03 00:34:05;;;;;;;19.23;8.07;;;;;;;-1.32;100.00;101959.78;5114328;28;20026;-90
2023/12/03 00:36:31;;;;;;;19.20;7.72;;;;;;;-1.44;100.00;101958.31;5113501;28;20020;-90
2023/12/03 00:38:57;;;;;;;17.67;7.93;;;;;;;-1.58;100.00;101969.06;5114452;28;20023;-91
2023/12/03 00:41:22;;;;;;;15.10;7.88;;;;;;;-1.68;100.00;101967.53;5113848;28;20024;-90
2023/12/03 00:43:48;;;;;;;17.77;7.60;;;;;;;-1.83;100.00;101961.72;5114283;28;20136;-90
2023/12/03 00:46:19;;;;;;;25.73;10.38;;;;;;;-1.91;100.00;101965.38;5113822;28;20043;-89
2023/12/03 00:48:48;;;;;;;24.58;9.88;;;;;;;-2.02;100.00;101968.22;5114341;28;20039;-91
2023/12/03 00:51:14;;;;;;;19.45;10.25;;;;;;;-2.12;100.00;101975.34;5114069;28;20055;-88
2023/12/03 00:53:41;;;;;;;22.60;9.60;;;;;;;-2.23;100.00;101978.16;5114208;28;20104;-90
2023/12/03 00:56:07;;;;;;;17.48;8.15;;;;;;;-2.33;100.00;101977.50;5114129;28;20027;-91
2023/12/03 00:58:32;;;;;;;15.50;7.60;;;;;;;-2.40;100.00;101973.28;5095413;28;20031;-90
2023/12/03 01:00:57;;;;;;;17.80;7.28;;;;;;;-2.44;100.00;101974.22;5113857;28;20030;-90
2023/12/03 01:03:23;;;;;;;15.70;7.53;;;;;;;-2.46;100.00;101967.31;5112905;28;20130;-75
2023/12/03 01:05:48;;;;;;;15.20;6.97;;;;;;;-2.50;100.00;101963.91;5077851;28;20027;-74
2023/12/03 01:08:14;;;;;;;17.85;7.18;;;;;;;-2.49;100.00;101968.25;5094572;28;20063;-75
2023/12/03 01:10:39;;;;;;;30.63;9.55;;;;;;;-2.47;100.00;101973.44;5094283;28;20031;-74
2023/12/03 01:13:04;;;;;;;25.17;10.38;;;;;;;-2.47;100.00;101971.66;5112697;28;20435;-74
2023/12/03 01:15:30;;;;;;;23.90;10.18;;;;;;;-2.42;100.00;101969.81;5112745;28;20482;-74
2023/12/03 01:17:55;;;;;;;33.28;12.45;;;;;;;-2.35;100.00;101973.19;5112670;28;20029;-73
2023/12/03 01:20:20;;;;;;;35.78;13.43;;;;;;;-2.28;100.00;101969.59;5112448;28;20114;-74
2023/12/03 01:22:46;;;;;;;41.85;13.85;;;;;;;-2.19;100.00;101979.00;5112004;28;20381;-74
2023/12/03 01:25:11;;;;;;;41.03;14.18;;;;;;;-2.16;100.00;101982.38;5112781;28;20030;-74
2023/12/03 01:27:37;;;;;;;42.35;14.25;;;;;;;-2.15;100.00;101975.41;5111989;28;20039;-75
2023/12/03 01:30:02;;;;;;;47.33;16.60;;;;;;;-2.11;100.00;101984.06;5112229;28;20034;-74
2023/12/03 01:32:27;;;;;;;48.38;16.27;;;;;;;-2.10;100.00;101983.19;5112090;28;20055;-74
2023/12/03 01:34:53;;;;;;;50.72;17.33;;;;;;;-2.09;100.00;101982.25;5112089;28;20031;-74
2023/12/03 01:37:18;;;;;;;60.22;19.50;;;;;;;-2.05;100.00;101987.38;5112019;28;20430;-74
2023/12/03 01:39:44;;;;;;;55.65;20.08;;;;;;;-1.98;100.00;101991.59;5112258;28;20088;-74
2023/12/03 01:42:09;;;;;;;60.50;20.73;;;;;;;-1.87;100.00;101998.34;5111889;28;20427;-74
2023/12/03 01:44:35;;;;;;;61.83;20.98;;;;;;;-1.72;100.00;102005.88;5112100;28;20027;-74
2023/12/03 01:47:02;;;;;;;59.58;20.70;;;;;;;-1.56;100.00;102002.97;5111283;28;20424;-74
2023/12/03 01:49:28;;;;;;;58.95;21.58;;;;;;;-1.40;100.00;102011.28;5111258;28;20060;-74
2023/12/03 01:51:53;;;;;;;79.78;26.38;;;;;;;-1.29;100.00;101998.88;5111896;28;20182;-74
2023/12/03 01:54:19;;;;;;;91.55;27.80;;;;;;;-1.13;100.00;101994.16;5112136;28;20023;-74
2023/12/03 01:56:47;;;;;;;94.03;30.08;;;;;;;-1.00;100.00;101995.59;5111885;28;20095;-73
2023/12/03 01:59:12;;;;;;;87.32;31.35;;;;;;;-0.91;100.00;101999.72;5093301;28;20046;-73
2023/12/03 02:01:38;;;;;;;97.40;34.28;;;;;;;-0.78;100.00;102005.53;5111833;28;20454;-73
2023/12/03 02:04:03;;;;;;;91.13;32.92;;;;;;;-0.73;100.00;102001.91;5111752;28;20419;-73
2023/12/03 02:06:29;;;;;;;92.90;33.22;;;;;;;-0.62;100.00;102003.41;5111450;28;20464;-73
2023/12/03 02:08:54;;;;;;;97.90;35.65;;;;;;;-0.54;100.00;102002.31;5110821;28;20066;-74
2023/12/03 02:11:20;;;;;;;96.80;36.88;;;;;;;-0.52;100.00;102007.50;5093264;28;20130;-73
2023/12/03 02:13:47;;;;;;;89.80;34.03;;;;;;;-0.48;100.00;102005.66;5089287;28;20441;-74
2023/12/03 02:16:12;;;;;;;91.97;34.05;;;;;;;-0.49;100.00;101996.97;5091020;28;20118;-74
2023/12/03 02:18:38;;;;;;;97.55;34.33;;;;;;;-0.50;100.00;102000.47;5091280;28;20031;-75
2023/12/03 02:21:04;;;;;;;92.55;35.25;;;;;;;-0.49;100.00;102002.19;5090942;28;20371;-75
2023/12/03 02:23:30;;;;;;;80.63;30.90;;;;;;;-0.52;100.00;102001.41;5090996;28;20424;-75
2023/12/03 02:25:56;;;;;;;83.05;32.30;;;;;;;-0.55;100.00;102005.81;5091271;28;20106;-75
2023/12/03 02:28:22;;;;;;;94.45;33.17;;;;;;;-0.62;100.00;102004.25;5089756;28;20095;-74
2023/12/03 02:30:47;;;;;;;78.30;32.15;;;;;;;-0.67;100.00;102008.75;5090685;28;20445;-75
2023/12/03 02:33:12;;;;;;;90.55;32.42;;;;;;;-0.73;100.00;102012.38;5089390;28;20048;-74
2023/12/03 02:35:38;;;;;;;81.28;31.92;;;;;;;-0.78;100.00;102009.00;5090720;28;20085;-75
2023/12/03 02:38:03;;;;;;;82.07;31.83;;;;;;;-0.83;100.00;102002.19;5090651;28;20024;-74
2023/12/03 02:40:34;;;;;;;85.75;32.08;;;;;;;-0.91;100.00;102008.44;5089100;28;20393;-74
2023/12/03 02:43:00;;;;;;;81.43;32.75;;;;;;;-1.02;100.00;102004.38;5091100;28;20105;-74
2023/12/03 02:45:25;;;;;;;73.55;30.88;;;;;;;-1.16;100.00;102004.69;5091171;28;20028;-74
2023/12/03 02:47:51;;;;;;;70.53;31.42;;;;;;;-1.30;100.00;101999.75;5090768;28;20028;-74
2023/12/03 02:50:16;;;;;;;93.68;31.80;;;;;;;-1.39;100.00;102007.81;5090428;28;20024;-74
2023/12/03 02:52:41;;;;;;;88.30;34.50;;;;;;;-1.46;100.00;102005.34;5090356;28;20077;-73
2023/12/03 02:55:08;;;;;;;77.88;32.67;;;;;;;-1.52;100.00;102012.41;5090570;28;20096;-74
2023/12/03 02:57:34;;;;;;;83.88;35.15;;;;;;;-1.60;100.00;102004.75;5090844;28;20097;-73
2023/12/03 03:00:00;;;;;;;89.32;34.97;;;;;;;-1.56;100.00;102008.19;5094723;28;20426;-74
2023/12/03 03:02:25;;;;;;;88.32;35.33;;;;;;;-1.57;100.00;102003.84;5094330;28;20036;-74
2023/12/03 03:04:51;;;;;;;96.55;36.92;;;;;;;-1.55;100.00;102002.91;5094432;28;20512;-73
2023/12/03 03:07:16;;;;;;;93.07;36.75;;;;;;;-1.49;100.00;102004.53;5094551;28;20032;-73
2023/12/03 03:09:41;;;;;;;106.78;38.75;;;;;;;-1.51;100.00;101998.47;5094439;28;20028;-74
2023/12/03 03:12:07;;;;;;;96.78;38.20;;;;;;;-1.52;100.00;101999.38;5094521;28;20107;-74
2023/12/03 03:14:32;;;;;;;105.22;39.60;;;;;;;-1.56;100.00;102001.19;5105379;28;20455;-74
2023/12/03 03:16:58;;;;;;;98.65;38.75;;;;;;;-1.63;100.00;102000.47;5114950;28;20031;-75
2023/12/03 03:19:23;;;;;;;105.97;39.95;;;;;;;-1.69;100.00;101999.72;5114550;28;20118;-73
2023/12/03 03:21:48;;;;;;;88.32;35.17;;;;;;;-1.75;100.00;101999.88;5095897;28;20051;-75
2023/12/03 03:24:14;;;;;;;92.38;36.90;;;;;;;-1.81;100.00;102001.72;5114677;28;20092;-74
2023/12/03 03:26:42;;;;;;;97.00;38.38;;;;;;;-1.85;100.00;101999.19;5114182;28;20024;-73
2023/12/03 03:29:07;;;;;;;90.45;36.65;;;;;;;-1.91;100.00;102002.78;5114290;28;20028;-73
2023/12/03 03:31:33;;;;;;;99.20;39.00;;;;;;;-1.95;100.00;102011.56;5079010;28;20035;-73
2023/12/03 03:33:58;;;;;;;104.78;38.30;;;;;;;-2.00;100.00;102001.22;5113983;28;20027;-76
2023/12/03 03:36:23;;;;;;;94.28;36.20;;;;;;;-2.02;100.00;101999.53;5113991;28;20395;-74
2023/12/03 03:38:50;;;;;;;115.90;36.55;;;;;;;-2.04;100.00;102009.13;5113895;28;20035;-75
2023/12/03 03:41:15;;;;;;;104.00;37.45;;;;;;;-2.06;100.00;102005.69;5114039;28;20027;-75
2023/12/03 03:43:41;;;;;;;109.32;39.28;;;;;;;-2.04;100.00;102003.91;5114343;28;20124;-75
2023/12/03 03:46:06;;;;;;;105.30;36.40;;;;;;;-2.07;100.00;102002.22;5114606;28;20399;-74
2023/12/03 03:48:31;;;;;;;103.68;37.92;;;;;;;-2.08;100.00;102008.31;5113985;28;20043;-74
2023/12/03 03:50:57;;;;;;;103.88;36.60;;;;;;;-2.11;100.00;102004.91;5114567;28;20431;-74
2023/12/03 03:53:22;;;;;;;111.40;38.42;;;;;;;-2.15;100.00;102010.19;5113808;28;20542;-73
2023/12/03 03:55:48;;;;;;;106.15;39.15;;;;;;;-2.13;100.00;102013.63;5114060;28;20024;-74
2023/12/03 03:58:14;;;;;;;113.18;37.28;;;;;;;-2.14;100.00;102013.66;5095581;28;20028;-73
2023/12/03 04:00:39;;;;;;;119.72;39.47;;;;;;;-2.13;100.00;102023.22;5113911;28;20344;-74
2023/12/03 04:03:04;;;;;;;124.80;38.13;;;;;;;-2.13;100.00;102013.63;5113958;28;20358;-74
2023/12/03 04:05:30;;;;;;;108.15;37.90;;;;;;;-2.10;100.00;102015.31;5113264;28;20119;-74
2023/12/03 04:07:55;;;;;;;113.25;39.58;;;;;;;-2.07;100.00;102020.47;5113705;28;20038;-74
2023/12/03 04:10:21;;;;;;;115.65;37.40;;;;;;;-2.08;100.00;102017.91;5112652;28;20035;-74
2023/12/03 04:12:47;;;;;;;122.10;38.50;;;;;;;-2.08;100.00;102017.91;5113123;28;20455;-74
2023/12/03 04:15:13;;;;;;;112.00;37.10;;;;;;;-2.11;100.00;102025.78;5113764;28;20044;-74
2023/12/03 04:17:38;;;;;;;122.78;38.08;;;;;;;-2.16;100.00;102020.66;5113506;28;20023;-74
2023/12/03 04:20:04;;;;;;;93.15;34.58;;;;;;;-2.18;100.00;102025.03;5095425;28;20471;-74
2023/12/03 04:22:30;;;;;;;114.93;35.90;;;;;;;-2.21;100.00;102028.56;5113827;28;20034;-74
2023/12/03 04:24:55;;;;;;;107.25;38.38;;;;;;;-2.23;100.00;102022.50;5095162;28;20114;-74
2023/12/03 04:27:20;;;;;;;105.55;36.45;;;;;;;-2.28;100.00;102018.25;5113387;28;20061;-74
2023/12/03 04:29:46;;;;;;;110.05;35.55;;;;;;;-2.28;100.00;102018.25;5113172;28;20132;-74
2023/12/03 04:32:11;;;;;;;97.60;34.88;;;;;;;-2.28;100.00;102026.06;5113221;28;20024;-74
2023/12/03 04:34:40;;;;;;;99.03;34.42;;;;;;;-2.34;100.00;102020.09;5113011;28;20023;-74
2023/12/03 04:37:06;;;;;;;91.65;33.33;;;;;;;-2.40;100.00;102015.00;5113093;28;20020;-74
2023/12/03 04:39:31;;;;;;;115.88;34.63;;;;;;;-2.37;100.00;102014.94;5112849;28;20031;-74
2023/12/03 04:41:56;;;;;;;108.25;34.47;;;;;;;-2.40;100.00;102012.38;5113256;28;20032;-74
2023/12/03 04:44:22;;;;;;;84.82;30.52;;;;;;;-2.45;100.00;102014.19;5113522;28;20027;-74
2023/12/03 04:46:48;;;;;;;80.10;31.17;;;;;;;-2.55;100.00;102018.72;5112982;28;20030;-74
2023/12/03 04:49:13;;;;;;;100.05;32.08;;;;;;;-2.64;100.00;102007.56;5113058;28;20028;-74
2023/12/03 04:51:39;;;;;;;100.57;32.13;;;;;;;-2.66;100.00;102013.69;5094641;28;20465;-74
2023/12/03 04:54:04;;;;;;;92.22;31.63;;;;;;;-2.58;100.00;102016.16;5112591;28;20038;-74
2023/12/03 04:56:30;;;;;;;94.78;33.33;;;;;;;-2.55;100.00;102018.72;5113094;28;20195;-74
2023/12/03 04:58:55;;;;;;;88.45;32.03;;;;;;;-2.54;100.00;102019.56;5112850;28;20507;-74
2023/12/03 05:01:21;;;;;;;110.45;32.45;;;;;;;-2.54;100.00;102033.47;5112829;28;20103;-74
2023/12/03 05:03:46;;;;;;;105.78;32.88;;;;;;;-2.55;100.00;102025.69;5112750;28;20367;-75
2023/12/03 05:06:12;;;;;;;99.25;32.53;;;;;;;-2.60;100.00;102025.75;5112604;28;20034;-74
2023/12/03 05:08:38;;;;;;;82.20;30.48;;;;;;;-2.70;100.00;102027.66;5112137;28;20443;-74
2023/12/03 05:11:04;;;;;;;82.22;29.90;;;;;;;-2.80;100.00;102020.00;5112266;28;20090;-74
2023/12/03 05:13:30;;;;;;;86.50;29.48;;;;;;;-2.89;100.00;102023.63;5112222;28;20138;-74
2023/12/03 05:15:55;;;;;;;93.30;32.17;;;;;;;-2.95;100.00;102021.97;5094026;28;20031;-74
2023/12/03 05:18:21;;;;;;;83.65;29.48;;;;;;;-2.94;100.00;102022.81;5112138;28;20161;-75
2023/12/03 05:20:46;;;;;;;103.45;32.67;;;;;;;-2.93;100.00;102019.34;5112201;28;20442;-73
2023/12/03 05:23:12;;;;;;;98.40;32.42;;;;;;;-2.92;100.00;102011.50;5111785;28;20070;-72
2023/12/03 05:25:37;;;;;;;105.93;33.45;;;;;;;-2.88;100.00;102015.78;5112177;28;20035;-74
2023/12/03 05:28:03;;;;;;;108.53;33.30;;;;;;;-2.87;100.00;102011.41;5112130;28;20451;-73
2023/12/03 05:30:28;;;;;;;110.18;33.45;;;;;;;-2.86;100.00;102015.75;5111962;28;20153;-73
2023/12/03 05:32:54;;;;;;;116.43;34.03;;;;;;;-2.81;100.00;102020.88;5112205;28;20348;-73
2023/12/03 05:35:19;;;;;;;109.78;34.10;;;;;;;-2.82;100.00;102020.03;5112002;28;20020;-74
2023/12/03 05:37:45;;;;;;;117.70;36.20;;;;;;;-2.83;100.00;102023.53;5111864;28;20161;-73
2023/12/03 05:40:11;;;;;;;128.75;36.47;;;;;;;-2.78;100.00;102026.06;5112019;28;20430;-74
2023/12/03 05:42:36;;;;;;;139.10;38.20;;;;;;;-2.77;100.00;102031.25;5111600;28;20095;-74
2023/12/03 05:45:03;;;;;;;129.88;37.35;;;;;;;-2.81;100.00;102024.34;5111442;28;20114;-74
2023/12/03 05:47:29;;;;;;;128.55;35.70;;;;;;;-2.86;100.00;102034.84;5112065;28;20035;-73
2023/12/03 05:49:54;;;;;;;143.55;37.30;;;;;;;-2.90;100.00;102030.56;5110860;28;20411;-73
2023/12/03 05:52:20;;;;;;;131.00;35.33;;;;;;;-2.91;100.00;102030.56;5111320;28;20107;-73
2023/12/03 05:54:45;;;;;;;134.90;38.60;;;;;;;-2.97;100.00;102022.84;5111674;28;20431;-74
2023/12/03 05:57:11;;;;;;;117.53;35.10;;;;;;;-2.99;100.00;102033.31;5111387;28;20386;-73
2023/12/03 05:59:36;;;;;;;133.70;37.33;;;;;;;-3.01;100.00;102032.47;5111768;28;20370;-74
2023/12/03 06:02:02;;;;;;;130.50;37.30;;;;;;;-3.03;100.00;102039.44;5092679;28;20039;-74
2023/12/03 06:04:27;;;;;;;122.72;35.97;;;;;;;-2.95;100.00;102034.13;5111381;28;20024;-74
2023/12/03 06:06:52;;;;;;;145.20;38.92;;;;;;;-2.87;100.00;102037.47;5111452;28;20364;-74
2023/12/03 06:09:18;;;;;;;145.68;37.97;;;;;;;-2.87;100.00;102040.06;5111407;28;20103;-74
2023/12/03 06:11:43;;;;;;;136.52;37.58;;;;;;;-2.91;100.00;102043.59;5111765;28;20031;-74
2023/12/03 06:14:08;;;;;;;145.63;40.38;;;;;;;-2.93;100.00;102038.41;5111456;28;20439;-73
2023/12/03 06:16:34;;;;;;;145.05;40.65;;;;;;;-2.90;100.00;102040.13;5111264;28;20448;-73
2023/12/03 06:18:59;;;;;;;143.25;38.33;;;;;;;-2.92;100.00;102047.97;5111343;28;20336;-74
2023/12/03 06:21:24;;;;;;;146.90;42.63;;;;;;;-2.91;100.00;102047.09;5093027;28;20028;-73
2023/12/03 06:23:50;;;;;;;170.45;42.13;;;;;;;-2.92;100.00;102042.75;5111240;28;20436;-74
2023/12/03 06:26:15;;;;;;;164.70;42.30;;;;;;;-2.91;100.00;102054.03;5111310;28;20087;-75
2023/12/03 06:28:40;;;;;;;172.50;42.05;;;;;;;-2.90;100.00;102040.13;5111014;28;20347;-74
2023/12/03 06:31:06;;;;;;;187.40;44.30;;;;;;;-2.88;100.00;102040.94;5092774;28;20090;-74
2023/12/03 06:33:32;;;;;;;151.50;42.35;;;;;;;-2.88;100.00;102039.22;5092405;28;20035;-74
2023/12/03 06:35:57;;;;;;;177.27;43.80;;;;;;;-2.89;100.00;102032.28;5092971;28;20031;-74
2023/12/03 06:38:23;;;;;;;177.23;43.10;;;;;;;-2.89;100.00;102031.44;5111260;28;20059;-74
2023/12/03 06:40:49;;;;;;;173.93;44.58;;;;;;;-2.91;100.00;102031.47;5110962;28;20082;-74
2023/12/03 06:43:15;;;;;;;193.70;44.75;;;;;;;-2.93;100.00;102028.00;5075527;28;20104;-73
2023/12/03 06:45:40;;;;;;;183.77;44.22;;;;;;;-2.92;100.00;102021.91;5110948;28;20419;-74
2023/12/03 06:48:06;;;;;;;202.38;45.08;;;;;;;-2.89;100.00;102029.69;5110500;28;20040;-73
2023/12/03 06:50:32;;;;;;;176.60;44.42;;;;;;;-2.90;100.00;102025.34;5092108;28;20466;-73
2023/12/03 06:52:57;;;;;;;179.77;45.78;;;;;;;-2.91;100.00;102036.66;5110660;28;20103;-74
2023/12/03 06:55:23;;;;;;;192.95;45.50;;;;;;;-2.91;100.00;102038.41;5110313;28;20027;-74
2023/12/03 06:57:48;;;;;;;206.98;46.72;;;;;;;-2.90;100.00;102032.31;5075143;28;20138;-74
2023/12/03 07:00:14;;;;;;;187.73;45.45;;;;;;;-2.89;100.00;102034.88;5110764;28;20035;-74
2023/12/03 07:02:39;;;;;;;167.52;45.10;;;;;;;-2.91;100.00;102035.78;5110620;28;20058;-74
2023/12/03 07:05:05;;;;;;;193.77;47.65;;;;;;;-2.88;100.00;102039.22;5110527;28;20054;-74
2023/12/03 07:07:31;;;;;;;187.90;46.72;;;;;;;-2.86;100.00;102028.78;5110465;28;20031;-74
2023/12/03 07:09:56;;;;;;;176.52;45.65;;;;;;;-2.87;100.00;102032.25;5110657;28;20020;-74
2023/12/03 07:12:21;;;;;;;205.75;48.22;;;;;;;-2.91;100.00;102030.56;5110895;28;20476;-74
2023/12/03 07:14:47;;;;;;;186.68;46.40;;;;;;;-2.92;100.00;102029.72;5110623;28;20048;-74
2023/12/03 07:17:12;;;;;;;195.73;47.97;;;;;;;-2.90;100.00;102034.91;5110696;28;20111;-74
2023/12/03 07:19:45;;;;;;;184.35;44.08;;;;;;;-2.90;100.00;102035.75;5110536;28;20040;-73
2023/12/03 07:22:11;;;;;;;184.43;46.03;;;;;;;-2.90;100.00;102045.34;5092188;28;20068;-74
2023/12/03 07:24:41;;;;;;;197.35;45.70;;;;;;;-2.90;100.00;102040.97;5092272;28;20068;-73
2023/12/03 07:27:07;;;;;;;205.25;49.25;;;;;;;-2.90;100.00;102046.19;5110087;28;20110;-74
2023/12/03 07:29:32;;;;;;;208.35;48.85;;;;;;;-2.91;100.00;102031.47;5110594;28;20070;-74
2023/12/03 07:31:58;;;;;;;196.90;46.20;;;;;;;-2.90;100.00;102033.16;5111126;28;20409;-74
2023/12/03 07:34:25;;;;;;;191.90;46.08;;;;;;;-2.88;100.00;102040.94;5110132;28;20039;-74
2023/12/03 07:36:51;;;;;;;194.55;45.40;;;;;;;-2.90;100.00;102043.56;5092365;28;20087;-74
2023/12/03 07:39:16;;;;;;;200.55;47.63;;;;;;;-2.91;100.00;102036.66;5110466;28;20420;-73
2023/12/03 07:41:42;;;;;;;204.07;47.38;;;;;;;-2.90;100.00;102037.53;5110372;28;20042;-73
2023/12/03 07:44:07;;;;;;;192.48;44.63;;;;;;;-2.91;100.00;102048.81;5110125;28;20034;-74
2023/12/03 07:46:33;;;;;;;171.32;44.42;;;;;;;-2.91;100.00;102048.81;5113717;28;20023;-73
2023/12/03 07:48:58;;;;;;;221.10;45.88;;;;;;;-2.91;100.00;102052.28;5113943;28;20336;-74
2023/12/03 07:51:24;;;;;;;214.63;48.15;;;;;;;-2.89;100.00;102054.88;5113662;28;20362;-73
2023/12/03 07:53:49;;;;;;;196.75;46.75;;;;;;;-2.88;100.00;102054.84;5113688;28;20027;-73
2023/12/03 07:56:15;;;;;;;183.60;46.15;;;;;;;-2.83;100.00;102050.41;5113625;28;20027;-73
2023/12/03 07:58:40;;;;;;;195.55;47.45;;;;;;;-2.78;100.00;102049.50;5113802;28;20447;-73
2023/12/03 08:01:06;;;;;;;192.13;44.85;;;;;;;-2.76;100.00;102056.41;5113721;28;20042;-73
2023/12/03 08:03:31;;;;;;;170.73;45.08;;;;;;;-2.74;100.00;102065.06;5113368;28;20042;-73
2023/12/03 08:05:58;;;;;;;193.85;46.00;;;;;;;-2.70;100.00;102060.69;5113501;28;20432;-73
2023/12/03 08:08:23;;;;;;;188.77;47.33;;;;;;;-2.67;100.00;102066.69;5113112;28;20462;-72
2023/12/03 08:10:49;;;;;;;171.23;45.15;;;;;;;-2.63;100.00;102070.09;5113621;28;20024;-74
2023/12/03 08:13:14;;;;;;;193.02;45.15;;;;;;;-2.60;100.00;102063.97;5113291;28;20028;-72
2023/12/03 08:15:39;;;;;;;173.85;45.50;;;;;;;-2.56;100.00;102069.13;5113870;28;20131;-73
2023/12/03 08:18:05;;;;;;;191.70;47.78;;;;;;;-2.53;100.00;102069.06;5113174;28;20038;-74
2023/12/03 08:20:30;;;;;;;163.70;42.45;;;;;;;-2.52;100.00;102065.59;5113032;28;20035;-74
2023/12/03 08:22:56;;;;;;;177.90;45.50;;;;;;;-2.47;100.00;102067.25;5112933;28;20031;-73
2023/12/03 08:25:21;;;;;;;177.60;43.78;;;;;;;-2.45;100.00;102063.72;5113107;28;20172;-73
2023/12/03 08:27:46;;;;;;;180.00;44.67;;;;;;;-2.42;100.00;102062.81;5113315;28;20024;-73
2023/12/03 08:30:12;;;;;;;177.07;45.83;;;;;;;-2.39;100.00;102057.56;5094521;28;20034;-73
2023/12/03 08:32:38;;;;;;;180.30;45.85;;;;;;;-2.37;100.00;102056.66;5113213;28;20046;-73
2023/12/03 08:35:03;;;;;;;185.52;44.40;;;;;;;-2.32;100.00;102056.56;5113175;28;20047;-73
2023/12/03 08:37:29;;;;;;;175.68;43.75;;;;;;;-2.31;100.00;102058.28;5112875;28;20459;-74
2023/12/03 08:39:54;;;;;;;160.77;42.95;;;;;;;-2.27;100.00;102059.09;5077835;28;20043;-72
2023/12/03 08:42:20;;;;;;;166.70;40.95;;;;;;;-2.25;100.00;102058.19;5113006;28;20024;-74
2023/12/03 08:44:46;;;;;;;146.75;43.20;;;;;;;-2.24;100.00;102061.63;5094720;28;20023;-74
2023/12/03 08:47:12;;;;;;;178.93;43.47;;;;;;;-2.22;100.00;102058.13;5113160;28;20522;-73
2023/12/03 08:49:37;;;;;;;154.88;42.60;;;;;;;-2.21;100.00;102049.44;5094062;28;20054;-73
2023/12/03 08:52:03;;;;;;;158.13;43.25;;;;;;;-2.18;100.00;102053.69;5094956;28;20463;-73
2023/12/03 08:54:29;;;;;;;148.23;41.47;;;;;;;-2.14;100.00;102055.38;5112498;28;20020;-73
2023/12/03 08:56:55;;;;;;;158.82;41.88;;;;;;;-2.09;100.00;102057.91;5112382;28;20355;-73
2023/12/03 08:59:23;;;;;;;156.35;41.45;;;;;;;-2.05;100.00;102054.34;5060842;28;20095;-73
2023/12/03 09:01:48;;;;;;;130.75;39.75;;;;;;;-2.07;100.00;102051.78;5112535;28;20024;-74
2023/12/03 09:04:13;;;;;;;139.88;39.35;;;;;;;-1.98;100.00;102053.34;5112409;28;20035;-73
2023/12/03 09:06:40;;;;;;;139.45;39.67;;;;;;;-1.97;100.00;102047.22;5112499;28;20137;-73
2023/12/03 09:09:05;;;;;;;113.43;36.28;;;;;;;-1.90;100.00;102043.63;5094327;28;20023;-73
2023/12/03 09:11:31;;;;;;;124.30;36.95;;;;;;;-1.87;100.00;102040.09;5112539;28;20123;-74
2023/12/03 09:13:56;;;;;;;121.18;36.67;;;;;;;-1.82;100.00;102033.03;5112292;28;20192;-73
2023/12/03 09:16:22;;;;;;;107.70;33.70;;;;;;;-1.85;100.00;102031.38;5112473;28;20392;-74
2023/12/03 09:18:47;;;;;;;101.45;34.03;;;;;;;-1.81;100.00;102033.03;5112727;28;20119;-74
2023/12/03 09:21:13;;;;;;;105.60;33.90;;;;;;;-1.78;100.00;102027.75;5112894;28;20078;-74
2023/12/03 09:23:38;;;;;;;100.30;33.88;;;;;;;-1.73;100.00;102034.59;5112327;28;20031;-72
2023/12/03 09:26:04;;;;;;;109.18;33.40;;;;;;;-1.71;100.00;102035.44;5111890;28;20073;-73
2023/12/03 09:28:30;;;;;;;84.22;29.85;;;;;;;-1.69;100.00;102036.28;5111782;28;20142;-73
2023/12/03 09:30:59;;;;;;;82.75;29.15;;;;;;;-1.69;100.00;102037.13;5111938;28;20027;-82
2023/12/03 09:33:28;;;;;;;89.88;29.63;;;;;;;-1.66;100.00;102037.06;5111757;28;20091;-75
2023/12/03 09:35:56;;;;;;;82.32;28.80;;;;;;;-1.63;100.00;102042.25;5111848;28;20404;-74
2023/12/03 09:38:22;;;;;;;82.53;29.33;;;;;;;-1.58;100.00;102047.38;5111586;28;20126;-72
2023/12/03 09:40:48;;;;;;;66.03;26.92;;;;;;;-1.54;100.00;102049.00;5093139;28;20031;-73
2023/12/03 09:43:20;;;;;;;77.60;27.38;;;;;;;-1.58;100.00;102047.38;5111548;28;20182;-74
2023/12/03 09:45:46;;;;;;;;;;;;;;;-1.55;100.00;102054.25;5111933;28;20015;-73
2023/12/03 09:48:12;;;;;;;77.22;26.05;;;;;;;-1.66;100.00;102050.09;5111895;28;19977;-75
2023/12/03 09:50:41;;;;;;;73.45;26.48;;;;;;;-1.63;100.00;102044.84;5111542;28;20140;-74
2023/12/03 09:53:10;;;;;;;53.67;22.77;;;;;;;-1.58;100.00;102052.59;5111928;28;20073;-73
2023/12/03 09:55:37;;;;;;;56.72;24.48;;;;;;;-1.57;100.00;102049.06;5111994;28;20024;-73
2023/12/03 09:58:03;;;;;;;54.30;22.80;;;;;;;-1.54;100.00;102053.38;5111653;28;20388;-73
2023/12/03 10:00:31;;;;;;;58.38;23.80;;;;;;;-1.46;100.00;102052.31;5111380;28;20051;-74
2023/12/03 10:02:57;;;;;;;54.92;24.27;;;;;;;-1.42;100.00;102033.09;5111425;28;20028;-73
2023/12/03 10:05:22;;;;;;;49.75;23.13;;;;;;;-1.32;100.00;102035.50;5111606;28;20032;-75
2023/12/03 10:07:51;;;;;;;51.58;21.13;;;;;;;-1.38;100.00;102033.88;5111155;28;20339;-73
2023/12/03 10:10:19;;;;;;;44.85;19.73;;;;;;;-1.36;100.00;102034.69;5111432;28;20023;-74
2023/12/03 10:12:49;;;;;;;54.10;19.38;;;;;;;-1.35;100.00;102040.78;5111354;28;20031;-74
2023/12/03 10:15:14;;;;;;;48.58;20.17;;;;;;;-1.34;100.00;102026.84;5111288;28;20088;-73
2023/12/03 10:17:40;;;;;;;36.17;18.23;;;;;;;-1.34;100.00;102037.31;5111064;28;20069;-73
2023/12/03 10:20:20;;;;;;;39.20;17.60;;;;;;;-1.36;100.00;102029.47;5111795;28;20031;-74
2023/12/03 10:22:46;;;;;;;39.40;18.27;;;;;;;-1.34;100.00;102025.09;5092564;28;20024;-72
2023/12/03 10:25:25;;;;;;;39.00;16.50;;;;;;;-1.32;100.00;102010.25;5111010;28;20739;-72
2023/12/03 10:27:53;;;;;;;38.88;17.67;;;;;;;-1.28;100.00;102006.66;5093058;28;20028;-72
2023/12/03 10:30:18;;;;;;;40.75;17.20;;;;;;;-1.28;100.00;101998.00;5111186;28;20129;-73
2023/12/03 10:32:45;;;;;;;35.63;16.65;;;;;;;-1.26;100.00;101996.19;5110846;28;20485;-74
2023/12/03 10:35:11;;;;;;;38.58;17.52;;;;;;;-1.27;100.00;101997.06;5110861;28;20320;-74
2023/12/03 10:37:37;;;;;;;38.22;16.15;;;;;;;-1.33;100.00;101989.38;5111060;28;20028;-74
2023/12/03 10:40:03;;;;;;;35.30;16.73;;;;;;;-1.34;100.00;101988.53;5111263;28;20061;-74
2023/12/03 10:42:33;;;;;;;39.58;17.15;;;;;;;-1.31;100.00;101985.84;5110845;28;20032;-73
2023/12/03 10:45:11;;;;;;;42.38;16.67;;;;;;;-1.28;100.00;101974.50;5111137;28;20092;-74
2023/12/03 10:47:37;;;;;;;36.78;16.90;;;;;;;-1.28;100.00;101975.34;5111352;28;20031;-73
2023/12/03 10:50:05;;;;;;;36.38;16.33;;;;;;;-1.22;100.00;101976.06;5092597;28;20064;-73
2023/12/03 10:52:38;;;;;;;30.58;15.40;;;;;;;-1.24;100.00;101983.94;5110915;28;20347;-73